createdAt,value
2023-05-16T00:00:31.480Z,24.74
2023-05-16T00:01:31.509Z,24.74
2023-05-16T00:02:31.592Z,24.73
2023-05-16T00:03:31.585Z,24.72
2023-05-16T00:04:31.538Z,24.73
2023-05-16T00:05:31.521Z,24.73
2023-05-16T00:06:31.504Z,24.73
2023-05-16T00:07:31.520Z,24.76
2023-05-16T00:08:31.519Z,24.73
2023-05-16T00:09:31.517Z,24.74
2023-05-16T00:10:31.527Z,24.73
2023-05-16T00:11:31.573Z,24.72
2023-05-16T00:12:31.589Z,24.69
2023-05-16T00:13:31.580Z,24.72
2023-05-16T00:14:31.597Z,24.73
2023-05-16T00:15:31.613Z,24.72
2023-05-16T00:16:31.635Z,24.72
2023-05-16T00:17:31.639Z,24.72
2023-05-16T00:18:31.669Z,24.73
2023-05-16T00:19:31.626Z,24.72
2023-05-16T00:20:31.633Z,24.70
2023-05-16T00:21:31.644Z,24.73
2023-05-16T00:22:31.630Z,24.69
2023-05-16T00:23:31.641Z,24.72
2023-05-16T00:24:31.639Z,24.72
2023-05-16T00:25:31.671Z,24.73
2023-05-16T00:26:31.654Z,24.72
2023-05-16T00:27:31.664Z,24.72
2023-05-16T00:28:31.685Z,24.73
2023-05-16T00:29:31.682Z,24.70
2023-05-16T00:30:31.688Z,24.70
2023-05-16T00:31:31.735Z,24.72
2023-05-16T00:32:31.714Z,24.70
2023-05-16T00:33:31.730Z,24.70
2023-05-16T00:34:31.810Z,24.72
2023-05-16T00:35:31.744Z,24.72
2023-05-16T00:36:31.757Z,24.69
2023-05-16T00:37:31.748Z,24.69
2023-05-16T00:38:31.764Z,24.69
2023-05-16T00:39:31.796Z,24.67
2023-05-16T00:40:31.814Z,24.72
2023-05-16T00:41:31.802Z,24.70
2023-05-16T00:42:31.790Z,24.69
2023-05-16T00:43:31.808Z,24.66
2023-05-16T00:44:31.828Z,24.66
2023-05-16T00:45:31.845Z,24.67
2023-05-16T00:46:31.925Z,24.72
2023-05-16T00:47:31.895Z,24.66
2023-05-16T00:48:31.867Z,24.69
2023-05-16T00:49:31.880Z,24.69
2023-05-16T00:50:31.891Z,24.66
2023-05-16T00:51:31.925Z,24.67
2023-05-16T00:52:31.905Z,24.70
2023-05-16T00:53:31.933Z,24.67
2023-05-16T00:54:31.941Z,24.67
2023-05-16T00:55:31.942Z,24.66
2023-05-16T00:56:31.975Z,24.66
2023-05-16T00:57:31.976Z,24.66
2023-05-16T00:58:31.975Z,24.67
2023-05-16T00:59:31.984Z,24.67
2023-05-16T01:00:31.999Z,24.67
2023-05-16T01:01:32.000Z,24.66
2023-05-16T01:02:32.116Z,24.64
2023-05-16T01:03:32.178Z,24.67
2023-05-16T01:04:31.999Z,24.67
2023-05-16T01:05:32.027Z,24.67
2023-05-16T01:06:32.010Z,24.64
2023-05-16T01:07:32.023Z,24.66
2023-05-16T01:08:32.044Z,24.66
2023-05-16T01:09:32.068Z,24.64
2023-05-16T01:10:32.074Z,24.69
2023-05-16T01:11:32.068Z,24.64
2023-05-16T01:12:32.073Z,24.66
2023-05-16T01:13:32.076Z,24.66
2023-05-16T01:14:32.102Z,24.64
2023-05-16T01:15:32.133Z,24.66
2023-05-16T01:16:32.221Z,24.63
2023-05-16T01:17:32.144Z,24.66
2023-05-16T01:18:32.162Z,24.63
2023-05-16T01:19:32.194Z,24.66
2023-05-16T01:20:32.167Z,24.62
2023-05-16T01:21:32.174Z,24.63
2023-05-16T01:22:32.195Z,24.63
2023-05-16T01:23:32.206Z,24.64
2023-05-16T01:24:32.201Z,24.67
2023-05-16T01:25:32.204Z,24.66
2023-05-16T01:26:32.232Z,24.63
2023-05-16T01:27:32.237Z,24.64
2023-05-16T01:28:32.253Z,24.64
2023-05-16T01:29:32.243Z,24.66
2023-05-16T01:30:32.259Z,24.62
2023-05-16T01:31:32.365Z,24.62
2023-05-16T01:32:32.326Z,24.63
2023-05-16T01:33:32.317Z,24.64
2023-05-16T01:34:32.325Z,24.63
2023-05-16T01:35:32.315Z,24.62
2023-05-16T01:36:32.340Z,24.62
2023-05-16T01:37:32.345Z,24.64
2023-05-16T01:38:32.360Z,24.62
2023-05-16T01:39:32.357Z,24.64
2023-05-16T01:40:32.409Z,24.62
2023-05-16T01:41:32.392Z,24.62
2023-05-16T01:42:32.404Z,24.63
2023-05-16T01:43:32.426Z,24.62
2023-05-16T01:44:32.436Z,24.60
2023-05-16T01:45:32.475Z,24.60
2023-05-16T01:46:32.521Z,24.62
2023-05-16T01:47:32.508Z,24.62
2023-05-16T01:48:32.487Z,24.63
2023-05-16T01:49:32.512Z,24.63
2023-05-16T01:50:32.521Z,24.63
2023-05-16T01:51:32.521Z,24.64
2023-05-16T01:52:32.552Z,24.63
2023-05-16T01:53:32.538Z,24.64
2023-05-16T01:54:32.547Z,24.63
2023-05-16T01:55:32.575Z,24.63
2023-05-16T01:56:32.579Z,24.63
2023-05-16T01:57:32.597Z,24.62
2023-05-16T01:58:32.610Z,24.63
2023-05-16T01:59:32.610Z,24.62
2023-05-16T02:00:32.618Z,24.62
2023-05-16T02:01:32.763Z,24.60
2023-05-16T02:02:32.712Z,24.59
2023-05-16T02:03:32.716Z,24.56
2023-05-16T02:04:33.224Z,24.62
2023-05-16T02:05:32.714Z,24.60
2023-05-16T02:06:32.723Z,24.58
2023-05-16T02:07:32.732Z,24.58
2023-05-16T02:08:32.742Z,24.60
2023-05-16T02:09:32.766Z,24.62
2023-05-16T02:10:32.800Z,24.58
2023-05-16T02:11:32.812Z,24.60
2023-05-16T02:12:32.819Z,24.59
2023-05-16T02:13:32.828Z,24.59
2023-05-16T02:14:32.844Z,24.59
2023-05-16T02:15:32.857Z,24.58
2023-05-16T02:16:32.945Z,24.59
2023-05-16T02:17:32.940Z,24.59
2023-05-16T02:18:32.912Z,24.59
2023-05-16T02:19:32.925Z,24.56
2023-05-16T02:20:32.966Z,24.55
2023-05-16T02:21:32.980Z,24.59
2023-05-16T02:22:32.968Z,24.59
2023-05-16T02:23:33.037Z,24.58
2023-05-16T02:24:33.026Z,24.58
2023-05-16T02:25:33.024Z,24.55
2023-05-16T02:26:33.081Z,24.58
2023-05-16T02:27:33.078Z,24.58
2023-05-16T02:28:33.095Z,24.59
2023-05-16T02:29:33.097Z,24.58
2023-05-16T02:30:33.136Z,24.59
2023-05-16T02:31:33.160Z,24.58
2023-05-16T02:32:33.260Z,24.58
2023-05-16T02:33:33.187Z,24.59
2023-05-16T02:34:33.186Z,24.59
2023-05-16T02:35:33.229Z,24.59
2023-05-16T02:36:33.237Z,24.58
2023-05-16T02:37:33.241Z,24.59
2023-05-16T02:38:33.253Z,24.59
2023-05-16T02:39:33.290Z,24.56
2023-05-16T02:40:33.286Z,24.59
2023-05-16T02:41:33.303Z,24.59
2023-05-16T02:42:33.324Z,24.55
2023-05-16T02:43:33.352Z,24.56
2023-05-16T02:44:33.392Z,24.58
2023-05-16T02:45:33.369Z,24.59
2023-05-16T02:46:33.499Z,24.58
2023-05-16T02:47:33.427Z,24.58
2023-05-16T02:48:33.431Z,24.59
2023-05-16T02:49:33.442Z,24.62
2023-05-16T02:50:33.460Z,24.58
2023-05-16T02:51:33.474Z,24.56
2023-05-16T02:52:33.486Z,24.53
2023-05-16T02:53:33.516Z,24.55
2023-05-16T02:54:33.552Z,24.56
2023-05-16T02:55:33.527Z,24.53
2023-05-16T02:56:33.559Z,24.56
2023-05-16T02:57:33.587Z,24.58
2023-05-16T02:58:33.579Z,24.59
2023-05-16T02:59:33.602Z,24.56
2023-05-16T03:00:33.610Z,24.58
2023-05-16T03:01:33.678Z,24.55
2023-05-16T03:02:33.772Z,24.55
2023-05-16T03:03:33.801Z,24.55
2023-05-16T03:04:33.661Z,24.55
2023-05-16T03:05:33.683Z,24.56
2023-05-16T03:06:33.714Z,24.55
2023-05-16T03:07:33.711Z,24.56
2023-05-16T03:08:33.747Z,24.56
2023-05-16T03:09:33.751Z,24.56
2023-05-16T03:10:33.795Z,24.58
2023-05-16T03:11:34.223Z,24.53
2023-05-16T03:12:33.808Z,24.53
2023-05-16T03:13:33.830Z,24.58
2023-05-16T03:14:33.821Z,24.55
2023-05-16T03:15:33.866Z,24.56
2023-05-16T03:16:33.956Z,24.56
2023-05-16T03:17:33.928Z,24.55
2023-05-16T03:18:33.929Z,24.53
2023-05-16T03:19:33.899Z,24.53
2023-05-16T03:20:33.917Z,24.55
2023-05-16T03:21:33.933Z,24.55
2023-05-16T03:22:33.965Z,24.58
2023-05-16T03:23:34.003Z,24.55
2023-05-16T03:24:34.771Z,24.55
2023-05-16T03:25:34.036Z,24.53
2023-05-16T03:26:34.106Z,24.55
2023-05-16T03:27:34.141Z,24.55
2023-05-16T03:28:34.215Z,24.53
2023-05-16T03:29:34.276Z,24.56
2023-05-16T03:30:34.369Z,24.53
2023-05-16T03:31:34.446Z,24.53
2023-05-16T03:32:34.425Z,24.56
2023-05-16T03:33:34.463Z,24.55
2023-05-16T03:34:34.468Z,24.55
2023-05-16T03:35:34.486Z,24.56
2023-05-16T03:36:34.511Z,24.53
2023-05-16T03:37:34.521Z,24.53
2023-05-16T03:38:34.532Z,24.52
2023-05-16T03:39:34.535Z,24.55
2023-05-16T03:40:34.560Z,24.53
2023-05-16T03:41:34.591Z,24.53
2023-05-16T03:42:34.606Z,24.52
2023-05-16T03:43:34.615Z,24.53
2023-05-16T03:44:34.620Z,24.52
2023-05-16T03:45:34.668Z,24.55
2023-05-16T03:46:34.714Z,24.55
2023-05-16T03:47:34.735Z,24.52
2023-05-16T03:48:34.733Z,24.58
2023-05-16T03:49:34.714Z,24.53
2023-05-16T03:50:34.761Z,24.55
2023-05-16T03:51:34.752Z,24.52
2023-05-16T03:52:34.779Z,24.51
2023-05-16T03:53:34.781Z,24.56
2023-05-16T03:54:34.823Z,24.52
2023-05-16T03:55:34.824Z,24.53
2023-05-16T03:56:34.850Z,24.53
2023-05-16T03:57:34.875Z,24.51
2023-05-16T03:58:34.900Z,24.53
2023-05-16T03:59:34.926Z,24.51
2023-05-16T04:00:34.936Z,24.52
2023-05-16T04:01:35.015Z,24.51
2023-05-16T04:02:35.056Z,24.52
2023-05-16T04:03:35.048Z,24.53
2023-05-16T04:04:35.017Z,24.55
2023-05-16T04:05:35.069Z,24.51
2023-05-16T04:06:35.074Z,24.52
2023-05-16T04:07:35.118Z,24.52
2023-05-16T04:08:35.112Z,24.52
2023-05-16T04:09:35.117Z,24.52
2023-05-16T04:10:35.153Z,24.51
2023-05-16T04:11:35.142Z,24.52
2023-05-16T04:12:35.173Z,24.52
2023-05-16T04:13:35.235Z,24.53
2023-05-16T04:14:35.247Z,24.52
2023-05-16T04:15:35.303Z,24.49
2023-05-16T04:16:35.330Z,24.52
2023-05-16T04:17:35.469Z,24.49
2023-05-16T04:18:35.485Z,24.51
2023-05-16T04:19:35.471Z,24.49
2023-05-16T04:20:35.529Z,24.46
2023-05-16T04:21:35.579Z,24.49
2023-05-16T04:22:35.663Z,24.51
2023-05-16T04:23:35.695Z,24.51
2023-05-16T04:24:35.752Z,24.51
2023-05-16T04:25:35.829Z,24.52
2023-05-16T04:26:35.823Z,24.53
2023-05-16T04:27:35.831Z,24.52
2023-05-16T04:28:35.858Z,24.52
2023-05-16T04:29:35.884Z,24.52
2023-05-16T04:30:35.912Z,24.49
2023-05-16T04:31:35.969Z,24.52
2023-05-16T04:32:35.979Z,24.51
2023-05-16T04:33:35.962Z,24.52
2023-05-16T04:34:37.969Z,24.49
2023-05-16T04:35:35.983Z,24.48
2023-05-16T04:36:35.978Z,24.49
2023-05-16T04:37:35.983Z,24.51
2023-05-16T04:38:35.983Z,24.49
2023-05-16T04:39:35.973Z,24.48
2023-05-16T04:40:35.991Z,24.48
2023-05-16T04:41:35.944Z,24.52
2023-05-16T04:42:35.936Z,24.46
2023-05-16T04:43:35.950Z,24.49
2023-05-16T04:44:35.939Z,24.51
2023-05-16T04:45:37.587Z,24.48
2023-05-16T04:46:35.973Z,24.51
2023-05-16T04:47:35.924Z,24.48
2023-05-16T04:48:35.927Z,24.48
2023-05-16T04:49:35.904Z,24.48
2023-05-16T04:50:35.942Z,24.49
2023-05-16T04:51:35.883Z,24.48
2023-05-16T04:52:35.879Z,24.49
2023-05-16T04:53:35.866Z,24.48
2023-05-16T04:54:35.881Z,24.49
2023-05-16T04:55:35.861Z,24.51
2023-05-16T04:56:35.851Z,24.51
2023-05-16T04:57:35.860Z,24.49
2023-05-16T04:58:35.839Z,24.53
2023-05-16T04:59:35.822Z,24.51
2023-05-16T05:00:35.817Z,24.49
2023-05-16T05:01:35.880Z,24.52
2023-05-16T05:02:35.886Z,24.52
2023-05-16T05:03:35.876Z,24.51
2023-05-16T05:04:35.980Z,24.53
2023-05-16T05:05:35.975Z,24.52
2023-05-16T05:06:35.949Z,24.51
2023-05-16T05:07:35.977Z,24.51
2023-05-16T05:08:35.986Z,24.48
2023-05-16T05:09:35.994Z,24.49
2023-05-16T05:10:36.043Z,24.48
2023-05-16T05:11:36.036Z,24.49
2023-05-16T05:12:36.088Z,24.53
2023-05-16T05:13:36.093Z,24.52
2023-05-16T05:14:36.125Z,24.51
2023-05-16T05:15:36.134Z,24.52
2023-05-16T05:16:36.168Z,24.51
2023-05-16T05:17:36.255Z,24.51
2023-05-16T05:18:36.264Z,24.49
2023-05-16T05:19:36.237Z,24.49
2023-05-16T05:20:36.218Z,24.48
2023-05-16T05:21:36.278Z,24.51
2023-05-16T05:22:36.314Z,24.51
2023-05-16T05:23:36.356Z,24.51
2023-05-16T05:24:36.427Z,24.52
2023-05-16T05:25:37.829Z,24.53
2023-05-16T05:26:36.450Z,24.49
2023-05-16T05:27:36.507Z,24.45
2023-05-16T05:28:36.546Z,24.28
2023-05-16T05:29:36.621Z,24.22
2023-05-16T05:30:36.607Z,24.21
2023-05-16T05:31:36.640Z,24.21
2023-05-16T05:32:36.616Z,24.09
2023-05-16T05:33:36.627Z,24.02
2023-05-16T05:34:36.644Z,23.85
2023-05-16T05:35:36.621Z,23.83
2023-05-16T05:36:36.776Z,23.81
2023-05-16T05:37:36.636Z,23.89
2023-05-16T05:38:36.649Z,23.89
2023-05-16T05:39:36.679Z,23.87
2023-05-16T05:40:36.795Z,23.98
2023-05-16T05:41:36.782Z,24.02
2023-05-16T05:42:36.819Z,24.14
2023-05-16T05:43:36.879Z,24.28
2023-05-16T05:44:36.904Z,24.36
2023-05-16T05:45:37.335Z,24.49
2023-05-16T05:46:36.961Z,24.60
2023-05-16T05:47:36.950Z,24.66
2023-05-16T05:48:36.927Z,24.72
2023-05-16T05:49:36.917Z,24.82
2023-05-16T05:50:36.956Z,24.87
2023-05-16T05:51:36.997Z,24.94
2023-05-16T05:52:37.054Z,25.04
2023-05-16T05:53:37.126Z,25.07
2023-05-16T05:54:37.222Z,25.11
2023-05-16T05:55:37.234Z,25.22
2023-05-16T05:56:37.289Z,25.30
2023-05-16T05:57:37.288Z,25.31
2023-05-16T05:58:37.333Z,25.40
2023-05-16T05:59:37.383Z,25.44
2023-05-16T06:00:37.485Z,25.51
2023-05-16T06:01:37.500Z,25.57
2023-05-16T06:02:37.762Z,25.61
2023-05-16T06:03:37.639Z,25.66
2023-05-16T06:04:37.588Z,25.69
2023-05-16T06:05:37.651Z,25.72
2023-05-16T06:06:37.688Z,25.72
2023-05-16T06:07:37.665Z,25.76
2023-05-16T06:08:37.710Z,25.83
2023-05-16T06:09:37.725Z,25.86
2023-05-16T06:10:37.933Z,25.82
2023-05-16T06:11:37.753Z,25.88
2023-05-16T06:12:37.780Z,25.91
2023-05-16T06:13:37.844Z,25.93
2023-05-16T06:14:37.818Z,25.97
2023-05-16T06:15:37.820Z,26.02
2023-05-16T06:16:37.881Z,26.00
2023-05-16T06:17:37.887Z,26.02
2023-05-16T06:18:38.020Z,26.06
2023-05-16T06:19:37.855Z,26.06
2023-05-16T06:20:37.901Z,26.10
2023-05-16T06:21:37.909Z,26.02
2023-05-16T06:22:37.915Z,26.07
2023-05-16T06:23:37.916Z,26.04
2023-05-16T06:24:37.924Z,26.04
2023-05-16T06:25:37.938Z,26.04
2023-05-16T06:26:37.943Z,26.13
2023-05-16T06:27:37.980Z,26.12
2023-05-16T06:28:37.977Z,26.03
2023-05-16T06:29:37.977Z,26.12
2023-05-16T06:30:38.297Z,26.17
2023-05-16T06:31:38.052Z,26.16
2023-05-16T06:32:38.044Z,26.03
2023-05-16T06:33:38.013Z,26.03
2023-05-16T06:34:38.033Z,25.89
2023-05-16T06:35:38.314Z,25.66
2023-05-16T06:36:38.336Z,25.49
2023-05-16T06:37:38.358Z,25.49
2023-05-16T06:38:38.114Z,25.45
2023-05-16T06:39:38.159Z,25.40
2023-05-16T06:40:38.326Z,25.35
2023-05-16T06:41:38.216Z,25.35
2023-05-16T06:42:38.776Z,25.37
2023-05-16T06:43:38.261Z,25.30
2023-05-16T06:44:38.309Z,25.31
2023-05-16T06:45:38.352Z,25.27
2023-05-16T06:46:38.450Z,25.28
2023-05-16T06:47:38.391Z,25.30
2023-05-16T06:48:38.416Z,25.25
2023-05-16T06:49:38.456Z,25.24
2023-05-16T06:50:38.859Z,25.25
2023-05-16T06:51:38.553Z,25.22
2023-05-16T06:52:38.588Z,25.22
2023-05-16T06:53:38.611Z,25.22
2023-05-16T06:54:38.662Z,25.21
2023-05-16T06:55:38.825Z,25.22
2023-05-16T06:56:38.744Z,25.18
2023-05-16T06:57:38.748Z,25.18
2023-05-16T06:58:38.766Z,25.17
2023-05-16T06:59:38.770Z,25.13
2023-05-16T07:00:38.878Z,25.17
2023-05-16T07:01:38.777Z,25.21
2023-05-16T07:02:38.874Z,25.22
2023-05-16T07:03:38.867Z,25.27
2023-05-16T07:04:38.809Z,25.32
2023-05-16T07:05:38.893Z,25.37
2023-05-16T07:06:38.928Z,25.41
2023-05-16T07:07:38.994Z,25.52
2023-05-16T07:08:39.049Z,25.60
2023-05-16T07:09:39.103Z,25.65
2023-05-16T07:10:39.328Z,25.72
2023-05-16T07:11:39.145Z,25.76
2023-05-16T07:12:39.376Z,25.81
2023-05-16T07:13:39.205Z,25.85
2023-05-16T07:14:39.252Z,25.88
2023-05-16T07:15:39.260Z,25.92
2023-05-16T07:16:39.316Z,25.97
2023-05-16T07:17:39.284Z,26.00
2023-05-16T07:18:39.359Z,26.03
2023-05-16T07:19:39.312Z,26.06
2023-05-16T07:20:39.333Z,26.09
2023-05-16T07:21:39.323Z,26.12
2023-05-16T07:22:39.326Z,26.15
2023-05-16T07:23:39.346Z,26.17
2023-05-16T07:24:39.384Z,26.16
2023-05-16T07:25:39.856Z,26.19
2023-05-16T07:26:39.395Z,26.19
2023-05-16T07:27:39.417Z,26.09
2023-05-16T07:28:39.426Z,26.07
2023-05-16T07:29:39.434Z,26.02
2023-05-16T07:30:39.878Z,26.04
2023-05-16T07:31:39.530Z,26.12
2023-05-16T07:32:39.531Z,26.16
2023-05-16T07:33:39.516Z,26.20
2023-05-16T07:34:39.514Z,26.24
2023-05-16T07:35:39.524Z,26.24
2023-05-16T07:36:39.543Z,26.29
2023-05-16T07:37:39.543Z,26.31
2023-05-16T07:38:39.564Z,26.31
2023-05-16T07:39:39.573Z,26.34
2023-05-16T07:40:39.854Z,26.39
2023-05-16T07:41:39.852Z,26.39
2023-05-16T07:42:39.627Z,26.37
2023-05-16T07:43:39.632Z,26.40
2023-05-16T07:44:39.627Z,26.43
2023-05-16T07:45:39.740Z,26.41
2023-05-16T07:46:40.022Z,26.41
2023-05-16T07:47:39.653Z,26.44
2023-05-16T07:48:39.649Z,26.47
2023-05-16T07:49:39.663Z,26.51
2023-05-16T07:50:39.655Z,26.48
2023-05-16T07:51:39.680Z,26.53
2023-05-16T07:52:39.670Z,26.51
2023-05-16T07:53:39.673Z,26.54
2023-05-16T07:54:39.669Z,26.53
2023-05-16T07:55:39.840Z,26.55
2023-05-16T07:56:39.658Z,26.61
2023-05-16T07:57:39.661Z,26.57
2023-05-16T07:58:39.667Z,26.58
2023-05-16T07:59:39.753Z,26.60
2023-05-16T08:00:39.757Z,26.61
2023-05-16T08:01:39.760Z,26.64
2023-05-16T08:02:39.889Z,26.64
2023-05-16T08:03:39.810Z,26.64
2023-05-16T08:04:39.746Z,26.64
2023-05-16T08:05:39.807Z,26.67
2023-05-16T08:06:39.738Z,26.68
2023-05-16T08:07:39.724Z,26.61
2023-05-16T08:08:39.757Z,26.71
2023-05-16T08:09:39.739Z,26.68
2023-05-16T08:10:39.747Z,26.70
2023-05-16T08:11:39.731Z,26.73
2023-05-16T08:12:39.720Z,26.71
2023-05-16T08:13:39.743Z,26.77
2023-05-16T08:14:39.775Z,26.75
2023-05-16T08:15:39.941Z,26.74
2023-05-16T08:16:39.974Z,26.77
2023-05-16T08:17:39.899Z,26.77
2023-05-16T08:18:39.945Z,26.73
2023-05-16T08:19:39.886Z,26.74
2023-05-16T08:20:39.917Z,26.71
2023-05-16T08:21:39.894Z,26.64
2023-05-16T08:22:39.906Z,26.70
2023-05-16T08:23:39.888Z,26.65
2023-05-16T08:24:39.906Z,26.62
2023-05-16T08:25:39.933Z,26.64
2023-05-16T08:26:39.917Z,26.65
2023-05-16T08:27:39.954Z,26.65
2023-05-16T08:28:40.054Z,26.70
2023-05-16T08:29:40.056Z,26.70
2023-05-16T08:30:42.648Z,26.68
2023-05-16T08:31:40.383Z,26.65
2023-05-16T08:32:40.122Z,26.60
2023-05-16T08:33:40.137Z,26.61
2023-05-16T08:34:40.108Z,26.55
2023-05-16T08:35:40.097Z,26.50
2023-05-16T08:36:40.361Z,26.58
2023-05-16T08:37:40.077Z,26.55
2023-05-16T08:38:40.055Z,26.58
2023-05-16T08:39:40.063Z,26.60
2023-05-16T08:40:40.096Z,26.58
2023-05-16T08:41:40.352Z,26.55
2023-05-16T08:42:40.022Z,26.54
2023-05-16T08:43:40.023Z,26.51
2023-05-16T08:44:40.017Z,26.48
2023-05-16T08:45:39.995Z,26.43
2023-05-16T08:46:40.068Z,26.41
2023-05-16T08:47:40.077Z,26.39
2023-05-16T08:48:40.003Z,26.37
2023-05-16T08:49:40.025Z,26.36
2023-05-16T08:50:39.980Z,26.34
2023-05-16T08:51:39.975Z,26.31
2023-05-16T08:52:39.979Z,26.33
2023-05-16T08:53:39.983Z,26.33
2023-05-16T08:54:39.962Z,26.30
2023-05-16T08:55:39.964Z,26.31
2023-05-16T08:56:39.951Z,26.30
2023-05-16T08:57:39.941Z,26.29
2023-05-16T08:58:39.926Z,26.27
2023-05-16T08:59:39.933Z,26.29
2023-05-16T09:00:39.983Z,26.29
2023-05-16T09:01:40.376Z,26.26
2023-05-16T09:02:39.944Z,26.27
2023-05-16T09:03:39.959Z,26.27
2023-05-16T09:04:39.893Z,26.27
2023-05-16T09:05:39.932Z,26.26
2023-05-16T09:06:40.485Z,26.22
2023-05-16T09:07:39.883Z,26.24
2023-05-16T09:08:39.878Z,26.22
2023-05-16T09:09:39.890Z,26.23
2023-05-16T09:10:39.873Z,26.20
2023-05-16T09:11:39.890Z,26.19
2023-05-16T09:12:39.849Z,26.17
2023-05-16T09:13:39.842Z,26.17
2023-05-16T09:14:39.829Z,26.17
2023-05-16T09:15:39.828Z,26.16
2023-05-16T09:16:39.884Z,26.17
2023-05-16T09:17:41.587Z,26.15
2023-05-16T09:18:39.864Z,26.15
2023-05-16T09:19:39.865Z,26.15
2023-05-16T09:20:39.805Z,26.12
2023-05-16T09:21:39.902Z,26.12
2023-05-16T09:22:39.870Z,26.10
2023-05-16T09:23:39.761Z,26.10
2023-05-16T09:24:39.759Z,26.09
2023-05-16T09:25:39.748Z,25.96
2023-05-16T09:26:39.878Z,25.83
2023-05-16T09:27:39.736Z,25.89
2023-05-16T09:28:39.746Z,25.97
2023-05-16T09:29:39.713Z,26.06
2023-05-16T09:30:39.726Z,26.13
2023-05-16T09:31:39.964Z,26.17
2023-05-16T09:32:39.748Z,26.27
2023-05-16T09:33:39.689Z,26.29
2023-05-16T09:34:39.727Z,26.33
2023-05-16T09:35:45.428Z,26.36
2023-05-16T09:36:43.511Z,26.37
2023-05-16T09:37:39.672Z,26.39
2023-05-16T09:38:39.692Z,26.43
2023-05-16T09:39:39.652Z,26.43
2023-05-16T09:40:39.653Z,26.40
2023-05-16T09:41:39.682Z,26.46
2023-05-16T09:42:39.650Z,26.50
2023-05-16T09:43:41.608Z,26.48
2023-05-16T09:44:39.620Z,26.51
2023-05-16T09:45:39.605Z,26.53
2023-05-16T09:46:39.652Z,26.57
2023-05-16T09:47:39.681Z,26.57
2023-05-16T09:48:39.581Z,26.57
2023-05-16T09:49:39.584Z,26.58
2023-05-16T09:50:39.598Z,26.58
2023-05-16T09:51:39.882Z,26.55
2023-05-16T09:52:39.583Z,26.55
2023-05-16T09:53:39.581Z,26.61
2023-05-16T09:54:39.574Z,26.60
2023-05-16T09:55:39.555Z,26.60
2023-05-16T09:56:39.560Z,26.62
2023-05-16T09:57:39.553Z,26.58
2023-05-16T09:58:39.537Z,26.58
2023-05-16T09:59:39.523Z,26.58
2023-05-16T10:00:39.506Z,26.55
2023-05-16T10:01:39.543Z,26.55
2023-05-16T10:02:39.525Z,26.57
2023-05-16T10:03:39.610Z,26.55
2023-05-16T10:04:39.483Z,26.58
2023-05-16T10:05:39.488Z,26.60
2023-05-16T10:06:39.501Z,26.62
2023-05-16T10:07:39.478Z,26.60
2023-05-16T10:08:39.464Z,26.61
2023-05-16T10:09:39.472Z,26.60
2023-05-16T10:10:39.604Z,26.65
2023-05-16T10:11:39.433Z,26.62
2023-05-16T10:12:39.443Z,26.70
2023-05-16T10:13:39.430Z,26.70
2023-05-16T10:14:39.418Z,26.71
2023-05-16T10:15:39.415Z,26.73
2023-05-16T10:16:39.485Z,26.73
2023-05-16T10:17:39.472Z,26.77
2023-05-16T10:18:39.429Z,26.77
2023-05-16T10:19:39.418Z,26.77
2023-05-16T10:20:39.378Z,26.67
2023-05-16T10:21:39.373Z,26.50
2023-05-16T10:22:39.383Z,26.48
2023-05-16T10:23:39.403Z,26.43
2023-05-16T10:24:39.910Z,26.31
2023-05-16T10:25:39.449Z,26.27
2023-05-16T10:26:39.432Z,26.27
2023-05-16T10:27:39.484Z,26.22
2023-05-16T10:28:39.518Z,26.15
2023-05-16T10:29:52.938Z,26.03
2023-05-16T10:30:40.534Z,26.02
2023-05-16T10:31:39.531Z,25.86
2023-05-16T10:32:42.507Z,25.81
2023-05-16T10:33:39.514Z,25.62
2023-05-16T10:34:39.507Z,25.52
2023-05-16T10:35:39.496Z,25.45
2023-05-16T10:36:39.499Z,25.41
2023-05-16T10:37:39.575Z,25.41
2023-05-16T10:38:39.485Z,25.40
2023-05-16T10:39:39.464Z,25.38
2023-05-16T10:40:39.449Z,25.38
2023-05-16T10:41:39.460Z,25.32
2023-05-16T10:42:39.455Z,25.30
2023-05-16T10:43:39.710Z,25.22
2023-05-16T10:44:39.876Z,25.13
2023-05-16T10:45:39.465Z,25.06
2023-05-16T10:46:39.665Z,24.97
2023-05-16T10:47:39.461Z,24.93
2023-05-16T10:48:39.457Z,24.84
2023-05-16T10:49:39.410Z,24.79
2023-05-16T10:50:39.412Z,24.66
2023-05-16T10:51:39.376Z,24.60
2023-05-16T10:52:39.380Z,24.56
2023-05-16T10:53:39.380Z,24.63
2023-05-16T10:54:39.373Z,24.69
2023-05-16T10:55:39.357Z,24.66
2023-05-16T10:56:39.449Z,24.73
2023-05-16T10:57:39.347Z,24.76
2023-05-16T10:58:39.348Z,24.84
2023-05-16T10:59:39.325Z,24.89
2023-05-16T11:00:39.342Z,24.97
2023-05-16T11:01:39.475Z,25.03
2023-05-16T11:02:39.409Z,25.07
2023-05-16T11:03:39.541Z,25.11
2023-05-16T11:04:39.300Z,25.15
2023-05-16T11:05:39.285Z,25.17
2023-05-16T11:06:39.399Z,25.24
2023-05-16T11:07:39.259Z,25.28
2023-05-16T11:08:39.249Z,25.30
2023-05-16T11:09:39.260Z,25.32
2023-05-16T11:10:39.259Z,25.37
2023-05-16T11:11:39.415Z,25.40
2023-05-16T11:12:39.239Z,25.41
2023-05-16T11:13:39.228Z,25.42
2023-05-16T11:14:39.277Z,25.46
2023-05-16T11:15:39.230Z,25.45
2023-05-16T11:16:39.449Z,25.31
2023-05-16T11:17:41.030Z,25.40
2023-05-16T11:18:39.220Z,25.46
2023-05-16T11:19:39.200Z,25.52
2023-05-16T11:20:39.185Z,25.53
2023-05-16T11:21:39.397Z,25.51
2023-05-16T11:22:39.177Z,25.53
2023-05-16T11:23:39.145Z,25.58
2023-05-16T11:24:39.169Z,25.58
2023-05-16T11:25:39.152Z,25.61
2023-05-16T11:26:39.406Z,25.61
2023-05-16T11:27:39.141Z,25.61
2023-05-16T11:28:39.124Z,25.61
2023-05-16T11:29:39.126Z,25.62
2023-05-16T11:30:39.126Z,25.61
2023-05-16T11:31:39.159Z,25.64
2023-05-16T11:32:39.149Z,25.64
2023-05-16T11:33:39.075Z,25.64
2023-05-16T11:34:39.072Z,25.64
2023-05-16T11:35:39.087Z,25.66
2023-05-16T11:36:39.061Z,25.64
2023-05-16T11:37:39.066Z,25.64
2023-05-16T11:38:39.056Z,25.65
2023-05-16T11:39:39.101Z,25.65
2023-05-16T11:40:39.041Z,25.66
2023-05-16T11:41:39.042Z,25.66
2023-05-16T11:42:39.025Z,25.66
2023-05-16T11:43:39.025Z,25.65
2023-05-16T11:44:39.003Z,25.68
2023-05-16T11:45:39.008Z,25.69
2023-05-16T11:46:39.130Z,25.68
2023-05-16T11:47:39.110Z,25.66
2023-05-16T11:48:39.085Z,25.69
2023-05-16T11:49:38.974Z,25.66
2023-05-16T11:50:38.986Z,25.68
2023-05-16T11:51:38.962Z,25.68
2023-05-16T11:52:38.982Z,25.66
2023-05-16T11:53:38.951Z,25.69
2023-05-16T11:54:38.953Z,25.73
2023-05-16T11:55:42.329Z,25.71
2023-05-16T11:56:38.940Z,25.72
2023-05-16T11:57:38.937Z,25.73
2023-05-16T11:58:38.927Z,25.75
2023-05-16T11:59:38.897Z,25.75
2023-05-16T12:00:38.887Z,25.76
2023-05-16T12:01:38.912Z,25.81
2023-05-16T12:02:38.944Z,25.76
2023-05-16T12:03:38.999Z,25.81
2023-05-16T12:04:39.120Z,25.82
2023-05-16T12:05:38.984Z,25.83
2023-05-16T12:06:38.896Z,25.82
2023-05-16T12:07:38.843Z,25.73
2023-05-16T12:08:38.837Z,25.64
2023-05-16T12:09:38.847Z,24.93
2023-05-16T12:10:38.829Z,24.97
2023-05-16T12:11:38.838Z,25.07
2023-05-16T12:12:38.841Z,25.03
2023-05-16T12:13:38.808Z,25.04
2023-05-16T12:14:38.812Z,25.07
2023-05-16T12:15:38.791Z,25.11
2023-05-16T12:16:38.882Z,25.14
2023-05-16T12:17:38.820Z,25.21
2023-05-16T12:18:41.228Z,25.24
2023-05-16T12:19:38.779Z,25.30
2023-05-16T12:20:38.760Z,25.32
2023-05-16T12:21:38.759Z,25.41
2023-05-16T12:22:38.759Z,25.42
2023-05-16T12:23:38.740Z,25.48
2023-05-16T12:24:38.748Z,25.52
2023-05-16T12:25:38.747Z,25.57
2023-05-16T12:26:38.720Z,25.60
2023-05-16T12:27:41.041Z,25.65
2023-05-16T12:28:38.733Z,25.71
2023-05-16T12:29:38.746Z,25.62
2023-05-16T12:30:38.748Z,25.71
2023-05-16T12:31:38.862Z,25.73
2023-05-16T12:32:38.976Z,25.78
2023-05-16T12:33:38.916Z,25.82
2023-05-16T12:34:38.879Z,25.83
2023-05-16T12:35:38.867Z,25.83
2023-05-16T12:36:38.896Z,25.89
2023-05-16T12:37:38.885Z,25.89
2023-05-16T12:38:38.900Z,25.93
2023-05-16T12:39:38.929Z,25.95
2023-05-16T12:40:38.953Z,25.99
2023-05-16T12:41:38.938Z,25.99
2023-05-16T12:42:38.954Z,26.06
2023-05-16T12:43:38.967Z,26.02
2023-05-16T12:44:38.993Z,26.03
2023-05-16T12:45:38.985Z,26.03
2023-05-16T12:46:39.036Z,26.02
2023-05-16T12:47:39.057Z,26.02
2023-05-16T12:48:39.057Z,26.04
2023-05-16T12:49:39.033Z,26.06
2023-05-16T12:50:39.338Z,26.03
2023-05-16T12:51:39.088Z,26.06
2023-05-16T12:52:39.058Z,26.06